sensor_id;sensor_type;location;lat;lon;timestamp;P1;durP1;ratioP1;P2;durP2;ratioP2
63050;SDS011;49136;47.416;19.402;2023-02-26T00:01:00;3.15;;;1.70;;
63050;SDS011;49136;47.416;19.402;2023-02-26T00:03:26;3.10;;;1.33;;
63050;SDS011;49136;47.416;19.402;2023-02-26T00:05:52;4.18;;;2.05;;
63050;SDS011;49136;47.416;19.402;2023-02-26T00:08:17;2.85;;;1.50;;
63050;SDS011;49136;47.416;19.402;2023-02-26T00:10:43;1.92;;;1.55;;
63050;SDS011;49136;47.416;19.402;2023-02-26T00:13:09;2.65;;;1.90;;
63050;SDS011;49136;47.416;19.402;2023-02-26T00:15:35;5.28;;;1.65;;
63050;SDS011;49136;47.416;19.402;2023-02-26T00:18:05;3.95;;;1.75;;
63050;SDS011;49136;47.416;19.402;2023-02-26T00:20:36;5.20;;;2.28;;
63050;SDS011;49136;47.416;19.402;2023-02-26T00:23:02;2.40;;;1.48;;
63050;SDS011;49136;47.416;19.402;2023-02-26T00:25:28;3.58;;;1.50;;
63050;SDS011;49136;47.416;19.402;2023-02-26T00:27:53;3.33;;;0.90;;
63050;SDS011;49136;47.416;19.402;2023-02-26T00:30:19;3.42;;;2.25;;
63050;SDS011;49136;47.416;19.402;2023-02-26T00:32:45;2.65;;;2.20;;
63050;SDS011;49136;47.416;19.402;2023-02-26T00:35:12;4.28;;;2.10;;
63050;SDS011;49136;47.416;19.402;2023-02-26T00:40:33;4.28;;;1.98;;
63050;SDS011;49136;47.416;19.402;2023-02-26T00:43:05;4.45;;;1.98;;
63050;SDS011;49136;47.416;19.402;2023-02-26T00:45:33;3.10;;;1.33;;
63050;SDS011;49136;47.416;19.402;2023-02-26T00:48:11;4.97;;;1.63;;
63050;SDS011;49136;47.416;19.402;2023-02-26T00:50:53;2.67;;;1.60;;
63050;SDS011;49136;47.416;19.402;2023-02-26T00:56:14;3.13;;;1.67;;
63050;SDS011;49136;47.416;19.402;2023-02-26T00:58:39;4.20;;;1.63;;
63050;SDS011;49136;47.416;19.402;2023-02-26T01:01:05;3.13;;;1.58;;
63050;SDS011;49136;47.416;19.402;2023-02-26T01:03:31;2.10;;;1.40;;
63050;SDS011;49136;47.416;19.402;2023-02-26T01:05:57;2.92;;;1.60;;
63050;SDS011;49136;47.416;19.402;2023-02-26T01:11:06;2.28;;;1.42;;
63050;SDS011;49136;47.416;19.402;2023-02-26T01:13:32;5.72;;;1.55;;
63050;SDS011;49136;47.416;19.402;2023-02-26T01:16:02;6.25;;;1.65;;
63050;SDS011;49136;47.416;19.402;2023-02-26T01:18:37;1.85;;;1.08;;
63050;SDS011;49136;47.416;19.402;2023-02-26T01:21:09;4.05;;;1.83;;
63050;SDS011;49136;47.416;19.402;2023-02-26T01:23:42;2.47;;;1.70;;
63050;SDS011;49136;47.416;19.402;2023-02-26T01:26:14;2.47;;;1.23;;
63050;SDS011;49136;47.416;19.402;2023-02-26T01:28:52;4.72;;;2.03;;
63050;SDS011;49136;47.416;19.402;2023-02-26T01:31:24;5.70;;;2.33;;
63050;SDS011;49136;47.416;19.402;2023-02-26T01:33:51;4.28;;;1.63;;
63050;SDS011;49136;47.416;19.402;2023-02-26T01:36:21;2.13;;;1.45;;
63050;SDS011;49136;47.416;19.402;2023-02-26T01:38:54;3.65;;;1.48;;
63050;SDS011;49136;47.416;19.402;2023-02-26T01:41:30;3.95;;;2.30;;
63050;SDS011;49136;47.416;19.402;2023-02-26T01:49:17;3.72;;;2.13;;
63050;SDS011;49136;47.416;19.402;2023-02-26T01:54:15;1.45;;;1.17;;
63050;SDS011;49136;47.416;19.402;2023-02-26T01:56:46;1.80;;;1.23;;
63050;SDS011;49136;47.416;19.402;2023-02-26T01:59:14;3.72;;;1.88;;
63050;SDS011;49136;47.416;19.402;2023-02-26T02:01:41;4.70;;;1.88;;
63050;SDS011;49136;47.416;19.402;2023-02-26T02:04:09;3.97;;;1.95;;
63050;SDS011;49136;47.416;19.402;2023-02-26T02:06:37;3.15;;;1.67;;
63050;SDS011;49136;47.416;19.402;2023-02-26T02:09:04;2.35;;;1.50;;
63050;SDS011;49136;47.416;19.402;2023-02-26T02:11:32;2.20;;;1.13;;
63050;SDS011;49136;47.416;19.402;2023-02-26T02:33:18;2.20;;;1.35;;
63050;SDS011;49136;47.416;19.402;2023-02-26T02:35:55;2.25;;;1.30;;
63050;SDS011;49136;47.416;19.402;2023-02-26T02:38:27;2.35;;;1.55;;
63050;SDS011;49136;47.416;19.402;2023-02-26T02:41:03;3.17;;;1.83;;
63050;SDS011;49136;47.416;19.402;2023-02-26T02:43:32;1.23;;;1.00;;
63050;SDS011;49136;47.416;19.402;2023-02-26T02:48:33;1.45;;;1.27;;
63050;SDS011;49136;47.416;19.402;2023-02-26T02:53:58;3.10;;;1.30;;
63050;SDS011;49136;47.416;19.402;2023-02-26T02:56:29;1.85;;;1.75;;
63050;SDS011;49136;47.416;19.402;2023-02-26T03:01:44;6.05;;;1.80;;
63050;SDS011;49136;47.416;19.402;2023-02-26T03:04:14;1.85;;;1.02;;
63050;SDS011;49136;47.416;19.402;2023-02-26T03:06:41;3.67;;;1.30;;
63050;SDS011;49136;47.416;19.402;2023-02-26T03:09:07;5.63;;;1.92;;
63050;SDS011;49136;47.416;19.402;2023-02-26T03:11:34;2.08;;;1.40;;
63050;SDS011;49136;47.416;19.402;2023-02-26T03:14:00;1.75;;;1.50;;
63050;SDS011;49136;47.416;19.402;2023-02-26T03:19:25;4.55;;;1.75;;
63050;SDS011;49136;47.416;19.402;2023-02-26T03:33:40;2.30;;;0.98;;
63050;SDS011;49136;47.416;19.402;2023-02-26T03:36:13;0.77;;;0.70;;
63050;SDS011;49136;47.416;19.402;2023-02-26T03:41:37;3.75;;;1.58;;
63050;SDS011;49136;47.416;19.402;2023-02-26T03:44:08;1.35;;;1.25;;
63050;SDS011;49136;47.416;19.402;2023-02-26T03:46:39;1.33;;;1.23;;
63050;SDS011;49136;47.416;19.402;2023-02-26T03:49:13;3.40;;;1.30;;
63050;SDS011;49136;47.416;19.402;2023-02-26T03:52:00;5.60;;;2.25;;
63050;SDS011;49136;47.416;19.402;2023-02-26T03:54:37;5.60;;;2.05;;
63050;SDS011;49136;47.416;19.402;2023-02-26T03:57:06;1.63;;;1.05;;
63050;SDS011;49136;47.416;19.402;2023-02-26T03:59:32;2.17;;;1.45;;
63050;SDS011;49136;47.416;19.402;2023-02-26T04:02:08;0.65;;;0.65;;
63050;SDS011;49136;47.416;19.402;2023-02-26T04:07:15;2.67;;;1.02;;
63050;SDS011;49136;47.416;19.402;2023-02-26T04:09:42;2.58;;;0.93;;
63050;SDS011;49136;47.416;19.402;2023-02-26T04:12:12;3.22;;;1.63;;
63050;SDS011;49136;47.416;19.402;2023-02-26T04:14:38;1.42;;;1.33;;
63050;SDS011;49136;47.416;19.402;2023-02-26T04:17:04;2.25;;;1.45;;
63050;SDS011;49136;47.416;19.402;2023-02-26T04:19:30;1.38;;;0.90;;
63050;SDS011;49136;47.416;19.402;2023-02-26T04:21:55;4.07;;;2.17;;
63050;SDS011;49136;47.416;19.402;2023-02-26T04:24:21;2.17;;;1.23;;
63050;SDS011;49136;47.416;19.402;2023-02-26T04:26:46;2.00;;;1.15;;
63050;SDS011;49136;47.416;19.402;2023-02-26T04:29:12;1.17;;;1.10;;
63050;SDS011;49136;47.416;19.402;2023-02-26T04:31:38;3.35;;;1.58;;
63050;SDS011;49136;47.416;19.402;2023-02-26T04:34:03;2.22;;;1.50;;
63050;SDS011;49136;47.416;19.402;2023-02-26T04:36:28;3.28;;;1.35;;
63050;SDS011;49136;47.416;19.402;2023-02-26T04:38:54;1.80;;;1.42;;
63050;SDS011;49136;47.416;19.402;2023-02-26T04:41:20;3.58;;;1.75;;
63050;SDS011;49136;47.416;19.402;2023-02-26T04:43:45;1.38;;;1.25;;
63050;SDS011;49136;47.416;19.402;2023-02-26T04:46:11;3.92;;;1.02;;
63050;SDS011;49136;47.416;19.402;2023-02-26T04:48:36;3.03;;;1.23;;
63050;SDS011;49136;47.416;19.402;2023-02-26T04:51:02;5.68;;;1.67;;
63050;SDS011;49136;47.416;19.402;2023-02-26T04:53:27;5.28;;;2.10;;
63050;SDS011;49136;47.416;19.402;2023-02-26T04:55:53;1.50;;;1.00;;
63050;SDS011;49136;47.416;19.402;2023-02-26T04:58:18;2.53;;;1.33;;
63050;SDS011;49136;47.416;19.402;2023-02-26T05:00:46;2.53;;;1.48;;
63050;SDS011;49136;47.416;19.402;2023-02-26T05:03:13;2.15;;;1.08;;
63050;SDS011;49136;47.416;19.402;2023-02-26T05:05:39;2.42;;;1.60;;
63050;SDS011;49136;47.416;19.402;2023-02-26T05:08:04;3.85;;;2.03;;
63050;SDS011;49136;47.416;19.402;2023-02-26T05:10:30;1.85;;;1.25;;
63050;SDS011;49136;47.416;19.402;2023-02-26T05:12:56;5.50;;;1.70;;
63050;SDS011;49136;47.416;19.402;2023-02-26T05:15:21;2.78;;;1.40;;
63050;SDS011;49136;47.416;19.402;2023-02-26T05:17:47;3.85;;;1.73;;
63050;SDS011;49136;47.416;19.402;2023-02-26T05:20:12;2.50;;;2.30;;
63050;SDS011;49136;47.416;19.402;2023-02-26T05:22:39;2.92;;;1.85;;
63050;SDS011;49136;47.416;19.402;2023-02-26T05:25:06;3.28;;;2.22;;
63050;SDS011;49136;47.416;19.402;2023-02-26T05:27:32;1.27;;;1.15;;
63050;SDS011;49136;47.416;19.402;2023-02-26T05:29:58;3.45;;;1.77;;
63050;SDS011;49136;47.416;19.402;2023-02-26T05:32:23;4.03;;;1.10;;
63050;SDS011;49136;47.416;19.402;2023-02-26T05:34:49;3.30;;;1.75;;
63050;SDS011;49136;47.416;19.402;2023-02-26T05:37:14;0.95;;;0.90;;
63050;SDS011;49136;47.416;19.402;2023-02-26T05:39:39;3.35;;;1.77;;
63050;SDS011;49136;47.416;19.402;2023-02-26T05:42:05;3.15;;;1.92;;
63050;SDS011;49136;47.416;19.402;2023-02-26T05:44:31;2.35;;;2.15;;
63050;SDS011;49136;47.416;19.402;2023-02-26T05:46:57;4.53;;;2.10;;
63050;SDS011;49136;47.416;19.402;2023-02-26T05:49:22;5.38;;;2.35;;
63050;SDS011;49136;47.416;19.402;2023-02-26T05:51:47;4.93;;;2.78;;
63050;SDS011;49136;47.416;19.402;2023-02-26T05:54:13;2.72;;;1.67;;
63050;SDS011;49136;47.416;19.402;2023-02-26T05:56:38;3.13;;;1.75;;
63050;SDS011;49136;47.416;19.402;2023-02-26T05:59:04;2.63;;;1.65;;
63050;SDS011;49136;47.416;19.402;2023-02-26T06:01:29;4.30;;;1.67;;
63050;SDS011;49136;47.416;19.402;2023-02-26T06:03:55;3.42;;;1.23;;
63050;SDS011;49136;47.416;19.402;2023-02-26T06:06:21;3.25;;;2.50;;
63050;SDS011;49136;47.416;19.402;2023-02-26T06:08:46;1.98;;;1.55;;
63050;SDS011;49136;47.416;19.402;2023-02-26T06:11:12;3.20;;;1.90;;
63050;SDS011;49136;47.416;19.402;2023-02-26T06:13:38;4.05;;;1.88;;
63050;SDS011;49136;47.416;19.402;2023-02-26T06:16:04;2.25;;;1.90;;
63050;SDS011;49136;47.416;19.402;2023-02-26T06:18:30;6.57;;;2.03;;
63050;SDS011;49136;47.416;19.402;2023-02-26T06:20:57;3.70;;;1.92;;
63050;SDS011;49136;47.416;19.402;2023-02-26T06:23:23;3.55;;;2.65;;
63050;SDS011;49136;47.416;19.402;2023-02-26T06:25:49;2.38;;;1.80;;
63050;SDS011;49136;47.416;19.402;2023-02-26T06:28:16;2.63;;;2.42;;
63050;SDS011;49136;47.416;19.402;2023-02-26T06:30:41;2.45;;;1.67;;
63050;SDS011;49136;47.416;19.402;2023-02-26T06:33:07;4.35;;;2.15;;
63050;SDS011;49136;47.416;19.402;2023-02-26T06:35:32;4.13;;;2.47;;
63050;SDS011;49136;47.416;19.402;2023-02-26T06:37:57;5.97;;;2.53;;
63050;SDS011;49136;47.416;19.402;2023-02-26T06:40:23;10.27;;;2.50;;
63050;SDS011;49136;47.416;19.402;2023-02-26T06:42:48;5.43;;;2.55;;
63050;SDS011;49136;47.416;19.402;2023-02-26T06:45:14;5.85;;;2.35;;
63050;SDS011;49136;47.416;19.402;2023-02-26T06:47:39;7.30;;;2.50;;
63050;SDS011;49136;47.416;19.402;2023-02-26T06:50:05;4.18;;;2.38;;
63050;SDS011;49136;47.416;19.402;2023-02-26T06:52:31;4.80;;;2.35;;
63050;SDS011;49136;47.416;19.402;2023-02-26T06:54:57;5.50;;;3.17;;
63050;SDS011;49136;47.416;19.402;2023-02-26T06:57:22;3.35;;;2.30;;
63050;SDS011;49136;47.416;19.402;2023-02-26T06:59:48;5.50;;;1.55;;
63050;SDS011;49136;47.416;19.402;2023-02-26T07:02:20;4.25;;;1.73;;
63050;SDS011;49136;47.416;19.402;2023-02-26T07:04:47;3.58;;;1.85;;
63050;SDS011;49136;47.416;19.402;2023-02-26T07:07:12;5.20;;;3.55;;
63050;SDS011;49136;47.416;19.402;2023-02-26T07:09:38;6.50;;;4.05;;
63050;SDS011;49136;47.416;19.402;2023-02-26T07:12:04;2.50;;;2.22;;
63050;SDS011;49136;47.416;19.402;2023-02-26T07:14:31;4.68;;;2.63;;
63050;SDS011;49136;47.416;19.402;2023-02-26T07:16:58;6.97;;;2.78;;
63050;SDS011;49136;47.416;19.402;2023-02-26T07:19:23;5.75;;;2.65;;
63050;SDS011;49136;47.416;19.402;2023-02-26T07:21:49;4.90;;;2.95;;
63050;SDS011;49136;47.416;19.402;2023-02-26T07:24:15;5.78;;;3.35;;
63050;SDS011;49136;47.416;19.402;2023-02-26T07:26:40;5.72;;;3.00;;
63050;SDS011;49136;47.416;19.402;2023-02-26T07:29:05;8.80;;;2.75;;
63050;SDS011;49136;47.416;19.402;2023-02-26T07:31:31;6.80;;;2.65;;
63050;SDS011;49136;47.416;19.402;2023-02-26T07:33:57;8.60;;;2.50;;
63050;SDS011;49136;47.416;19.402;2023-02-26T07:36:22;6.82;;;1.92;;
63050;SDS011;49136;47.416;19.402;2023-02-26T07:38:48;4.32;;;2.63;;
63050;SDS011;49136;47.416;19.402;2023-02-26T07:41:13;7.18;;;3.38;;
63050;SDS011;49136;47.416;19.402;2023-02-26T07:43:39;13.25;;;3.50;;
63050;SDS011;49136;47.416;19.402;2023-02-26T07:46:04;8.00;;;2.85;;
63050;SDS011;49136;47.416;19.402;2023-02-26T07:48:30;8.88;;;3.30;;
63050;SDS011;49136;47.416;19.402;2023-02-26T07:50:55;5.15;;;1.95;;
63050;SDS011;49136;47.416;19.402;2023-02-26T07:53:21;3.40;;;1.73;;
63050;SDS011;49136;47.416;19.402;2023-02-26T07:55:47;6.10;;;2.50;;
63050;SDS011;49136;47.416;19.402;2023-02-26T07:58:12;7.00;;;3.33;;
63050;SDS011;49136;47.416;19.402;2023-02-26T08:00:37;3.03;;;2.03;;
63050;SDS011;49136;47.416;19.402;2023-02-26T08:03:03;5.88;;;2.85;;
63050;SDS011;49136;47.416;19.402;2023-02-26T08:05:28;6.57;;;2.72;;
63050;SDS011;49136;47.416;19.402;2023-02-26T08:07:54;8.73;;;3.33;;
63050;SDS011;49136;47.416;19.402;2023-02-26T08:10:19;4.82;;;2.30;;
63050;SDS011;49136;47.416;19.402;2023-02-26T08:12:45;5.25;;;2.58;;
63050;SDS011;49136;47.416;19.402;2023-02-26T08:15:10;7.63;;;4.03;;
63050;SDS011;49136;47.416;19.402;2023-02-26T08:17:38;3.58;;;2.28;;
63050;SDS011;49136;47.416;19.402;2023-02-26T08:20:05;5.22;;;3.72;;
63050;SDS011;49136;47.416;19.402;2023-02-26T08:22:32;8.82;;;3.13;;
63050;SDS011;49136;47.416;19.402;2023-02-26T08:24:58;5.43;;;2.95;;
63050;SDS011;49136;47.416;19.402;2023-02-26T08:27:24;6.15;;;3.92;;
63050;SDS011;49136;47.416;19.402;2023-02-26T08:29:49;13.27;;;3.65;;
63050;SDS011;49136;47.416;19.402;2023-02-26T08:32:15;4.28;;;2.90;;
63050;SDS011;49136;47.416;19.402;2023-02-26T08:34:42;3.42;;;2.03;;
63050;SDS011;49136;47.416;19.402;2023-02-26T08:37:07;6.07;;;3.15;;
63050;SDS011;49136;47.416;19.402;2023-02-26T08:39:35;6.30;;;2.67;;
63050;SDS011;49136;47.416;19.402;2023-02-26T08:42:03;4.68;;;2.67;;
63050;SDS011;49136;47.416;19.402;2023-02-26T08:44:29;9.60;;;3.78;;
63050;SDS011;49136;47.416;19.402;2023-02-26T08:46:54;2.45;;;1.45;;
63050;SDS011;49136;47.416;19.402;2023-02-26T08:49:20;5.53;;;2.45;;
63050;SDS011;49136;47.416;19.402;2023-02-26T08:51:46;3.40;;;1.65;;
63050;SDS011;49136;47.416;19.402;2023-02-26T08:54:11;9.70;;;3.55;;
63050;SDS011;49136;47.416;19.402;2023-02-26T08:56:37;15.27;;;4.03;;
63050;SDS011;49136;47.416;19.402;2023-02-26T08:59:02;13.30;;;5.53;;
63050;SDS011;49136;47.416;19.402;2023-02-26T09:01:28;4.45;;;2.20;;
63050;SDS011;49136;47.416;19.402;2023-02-26T09:03:54;6.97;;;4.00;;
63050;SDS011;49136;47.416;19.402;2023-02-26T09:06:20;4.63;;;2.30;;
63050;SDS011;49136;47.416;19.402;2023-02-26T09:08:45;3.22;;;1.95;;
63050;SDS011;49136;47.416;19.402;2023-02-26T09:11:11;2.28;;;1.80;;
63050;SDS011;49136;47.416;19.402;2023-02-26T09:13:36;5.50;;;2.78;;
63050;SDS011;49136;47.416;19.402;2023-02-26T09:16:02;2.67;;;2.10;;
63050;SDS011;49136;47.416;19.402;2023-02-26T09:18:27;7.20;;;1.90;;
63050;SDS011;49136;47.416;19.402;2023-02-26T09:20:53;2.20;;;1.40;;
63050;SDS011;49136;47.416;19.402;2023-02-26T09:23:18;4.93;;;1.85;;
63050;SDS011;49136;47.416;19.402;2023-02-26T09:25:44;2.83;;;1.83;;
63050;SDS011;49136;47.416;19.402;2023-02-26T09:28:10;3.33;;;2.15;;
63050;SDS011;49136;47.416;19.402;2023-02-26T09:30:35;5.00;;;2.50;;
63050;SDS011;49136;47.416;19.402;2023-02-26T09:33:01;10.40;;;4.43;;
63050;SDS011;49136;47.416;19.402;2023-02-26T09:35:26;10.15;;;4.30;;
63050;SDS011;49136;47.416;19.402;2023-02-26T09:37:52;5.50;;;2.88;;
63050;SDS011;49136;47.416;19.402;2023-02-26T09:40:39;8.07;;;3.00;;
63050;SDS011;49136;47.416;19.402;2023-02-26T09:46:32;7.85;;;2.63;;
63050;SDS011;49136;47.416;19.402;2023-02-26T09:51:54;8.75;;;3.40;;
63050;SDS011;49136;47.416;19.402;2023-02-26T09:54:46;12.38;;;5.72;;
63050;SDS011;49136;47.416;19.402;2023-02-26T09:57:19;4.78;;;2.42;;
63050;SDS011;49136;47.416;19.402;2023-02-26T09:59:51;2.22;;;1.95;;
63050;SDS011;49136;47.416;19.402;2023-02-26T10:02:25;6.65;;;3.95;;
63050;SDS011;49136;47.416;19.402;2023-02-26T10:08:00;9.48;;;3.53;;
63050;SDS011;49136;47.416;19.402;2023-02-26T10:13:01;7.10;;;2.92;;
63050;SDS011;49136;47.416;19.402;2023-02-26T10:15:34;6.07;;;3.05;;
63050;SDS011;49136;47.416;19.402;2023-02-26T10:20:38;5.25;;;2.20;;
63050;SDS011;49136;47.416;19.402;2023-02-26T10:25:41;6.78;;;3.65;;
63050;SDS011;49136;47.416;19.402;2023-02-26T10:30:39;7.47;;;3.58;;
63050;SDS011;49136;47.416;19.402;2023-02-26T10:36:29;5.53;;;3.25;;
63050;SDS011;49136;47.416;19.402;2023-02-26T10:42:12;7.85;;;4.70;;
63050;SDS011;49136;47.416;19.402;2023-02-26T10:49:50;7.75;;;4.13;;
63050;SDS011;49136;47.416;19.402;2023-02-26T10:52:19;8.00;;;4.80;;
63050;SDS011;49136;47.416;19.402;2023-02-26T10:57:58;11.55;;;4.50;;
63050;SDS011;49136;47.416;19.402;2023-02-26T11:00:38;7.07;;;3.92;;
63050;SDS011;49136;47.416;19.402;2023-02-26T11:03:05;11.23;;;5.53;;
63050;SDS011;49136;47.416;19.402;2023-02-26T11:05:32;4.47;;;3.03;;
63050;SDS011;49136;47.416;19.402;2023-02-26T11:08:08;6.22;;;3.83;;
63050;SDS011;49136;47.416;19.402;2023-02-26T11:10:40;14.15;;;5.82;;
63050;SDS011;49136;47.416;19.402;2023-02-26T11:13:09;11.20;;;5.38;;
63050;SDS011;49136;47.416;19.402;2023-02-26T11:15:35;13.70;;;6.10;;
63050;SDS011;49136;47.416;19.402;2023-02-26T11:18:00;8.43;;;3.78;;
63050;SDS011;49136;47.416;19.402;2023-02-26T11:20:32;8.93;;;4.28;;
63050;SDS011;49136;47.416;19.402;2023-02-26T11:23:01;12.27;;;4.95;;
63050;SDS011;49136;47.416;19.402;2023-02-26T11:25:30;13.70;;;4.28;;
63050;SDS011;49136;47.416;19.402;2023-02-26T11:27:59;10.75;;;5.20;;
63050;SDS011;49136;47.416;19.402;2023-02-26T11:30:29;8.55;;;4.68;;
63050;SDS011;49136;47.416;19.402;2023-02-26T11:32:58;11.25;;;4.18;;
63050;SDS011;49136;47.416;19.402;2023-02-26T11:35:30;11.32;;;5.95;;
63050;SDS011;49136;47.416;19.402;2023-02-26T11:37:57;10.15;;;4.65;;
63050;SDS011;49136;47.416;19.402;2023-02-26T11:40:36;10.07;;;5.32;;
63050;SDS011;49136;47.416;19.402;2023-02-26T11:43:04;17.48;;;4.05;;
63050;SDS011;49136;47.416;19.402;2023-02-26T11:45:36;5.28;;;2.92;;
63050;SDS011;49136;47.416;19.402;2023-02-26T11:48:06;8.65;;;4.53;;
63050;SDS011;49136;47.416;19.402;2023-02-26T11:50:43;9.93;;;5.05;;
63050;SDS011;49136;47.416;19.402;2023-02-26T11:53:15;6.20;;;2.40;;
63050;SDS011;49136;47.416;19.402;2023-02-26T11:55:44;9.38;;;4.88;;
63050;SDS011;49136;47.416;19.402;2023-02-26T11:58:21;10.77;;;3.97;;
63050;SDS011;49136;47.416;19.402;2023-02-26T12:00:52;5.82;;;3.13;;
63050;SDS011;49136;47.416;19.402;2023-02-26T12:03:22;6.70;;;3.08;;
63050;SDS011;49136;47.416;19.402;2023-02-26T12:05:52;8.52;;;3.75;;
63050;SDS011;49136;47.416;19.402;2023-02-26T12:08:22;8.60;;;3.78;;
63050;SDS011;49136;47.416;19.402;2023-02-26T12:19:02;5.78;;;2.95;;
63050;SDS011;49136;47.416;19.402;2023-02-26T12:32:31;15.63;;;5.80;;
63050;SDS011;49136;47.416;19.402;2023-02-26T12:35:20;4.90;;;2.28;;
63050;SDS011;49136;47.416;19.402;2023-02-26T12:43:59;6.35;;;3.90;;
63050;SDS011;49136;47.416;19.402;2023-02-26T12:54:34;4.53;;;2.53;;
63050;SDS011;49136;47.416;19.402;2023-02-26T13:00:12;4.78;;;2.28;;
63050;SDS011;49136;47.416;19.402;2023-02-26T13:13:58;6.03;;;2.65;;
63050;SDS011;49136;47.416;19.402;2023-02-26T13:16:43;10.50;;;3.33;;
63050;SDS011;49136;47.416;19.402;2023-02-26T13:19:26;5.60;;;3.63;;
63050;SDS011;49136;47.416;19.402;2023-02-26T13:22:23;10.05;;;3.13;;
63050;SDS011;49136;47.416;19.402;2023-02-26T13:25:00;5.53;;;2.72;;
63050;SDS011;49136;47.416;19.402;2023-02-26T13:27:45;10.27;;;3.55;;
63050;SDS011;49136;47.416;19.402;2023-02-26T13:30:18;17.63;;;4.05;;
63050;SDS011;49136;47.416;19.402;2023-02-26T13:32:54;18.70;;;6.47;;
63050;SDS011;49136;47.416;19.402;2023-02-26T13:35:39;21.83;;;7.15;;
63050;SDS011;49136;47.416;19.402;2023-02-26T13:38:31;10.80;;;5.20;;
63050;SDS011;49136;47.416;19.402;2023-02-26T13:41:13;6.55;;;2.15;;
63050;SDS011;49136;47.416;19.402;2023-02-26T13:49:08;4.38;;;2.38;;
63050;SDS011;49136;47.416;19.402;2023-02-26T13:51:51;9.70;;;3.63;;
63050;SDS011;49136;47.416;19.402;2023-02-26T13:57:07;10.35;;;4.55;;
63050;SDS011;49136;47.416;19.402;2023-02-26T13:59:54;9.77;;;5.10;;
63050;SDS011;49136;47.416;19.402;2023-02-26T14:05:32;16.85;;;6.38;;
63050;SDS011;49136;47.416;19.402;2023-02-26T14:14:11;9.07;;;4.57;;
63050;SDS011;49136;47.416;19.402;2023-02-26T14:16:32;7.75;;;3.55;;
63050;SDS011;49136;47.416;19.402;2023-02-26T14:19:18;14.20;;;5.72;;
63050;SDS011;49136;47.416;19.402;2023-02-26T14:21:53;9.32;;;4.78;;
63050;SDS011;49136;47.416;19.402;2023-02-26T14:35:24;11.35;;;5.45;;
63050;SDS011;49136;47.416;19.402;2023-02-26T14:38:02;10.35;;;3.42;;
63050;SDS011;49136;47.416;19.402;2023-02-26T14:40:54;13.15;;;5.35;;
63050;SDS011;49136;47.416;19.402;2023-02-26T14:43:33;8.85;;;5.25;;
63050;SDS011;49136;47.416;19.402;2023-02-26T14:46:04;20.75;;;6.28;;
63050;SDS011;49136;47.416;19.402;2023-02-26T14:48:32;19.92;;;6.88;;
63050;SDS011;49136;47.416;19.402;2023-02-26T15:02:23;43.08;;;14.30;;
63050;SDS011;49136;47.416;19.402;2023-02-26T15:10:13;41.20;;;13.38;;
63050;SDS011;49136;47.416;19.402;2023-02-26T15:15:35;37.92;;;10.70;;
63050;SDS011;49136;47.416;19.402;2023-02-26T15:23:25;33.63;;;10.90;;
63050;SDS011;49136;47.416;19.402;2023-02-26T15:25:59;49.85;;;17.08;;
63050;SDS011;49136;47.416;19.402;2023-02-26T15:28:28;45.10;;;15.07;;
63050;SDS011;49136;47.416;19.402;2023-02-26T15:31:01;40.65;;;18.25;;
63050;SDS011;49136;47.416;19.402;2023-02-26T15:33:30;22.13;;;8.65;;
63050;SDS011;49136;47.416;19.402;2023-02-26T15:35:57;9.18;;;5.10;;
63050;SDS011;49136;47.416;19.402;2023-02-26T15:38:24;10.35;;;5.80;;
63050;SDS011;49136;47.416;19.402;2023-02-26T15:40:51;20.63;;;8.48;;
63050;SDS011;49136;47.416;19.402;2023-02-26T15:43:21;25.40;;;9.38;;
63050;SDS011;49136;47.416;19.402;2023-02-26T15:45:51;18.42;;;8.43;;
63050;SDS011;49136;47.416;19.402;2023-02-26T15:48:20;20.20;;;8.38;;
63050;SDS011;49136;47.416;19.402;2023-02-26T15:50:59;29.63;;;9.63;;
63050;SDS011;49136;47.416;19.402;2023-02-26T15:54:00;20.00;;;7.82;;
63050;SDS011;49136;47.416;19.402;2023-02-26T15:56:22;33.78;;;9.18;;
63050;SDS011;49136;47.416;19.402;2023-02-26T15:58:54;23.42;;;7.68;;
63050;SDS011;49136;47.416;19.402;2023-02-26T16:01:28;32.47;;;10.07;;
63050;SDS011;49136;47.416;19.402;2023-02-26T16:03:56;21.35;;;7.72;;
63050;SDS011;49136;47.416;19.402;2023-02-26T16:06:27;22.13;;;8.90;;
63050;SDS011;49136;47.416;19.402;2023-02-26T16:08:58;24.98;;;8.60;;
63050;SDS011;49136;47.416;19.402;2023-02-26T16:11:33;21.23;;;8.52;;
63050;SDS011;49136;47.416;19.402;2023-02-26T16:14:04;26.45;;;9.43;;
63050;SDS011;49136;47.416;19.402;2023-02-26T16:16:43;14.18;;;6.25;;
63050;SDS011;49136;47.416;19.402;2023-02-26T16:19:13;19.70;;;6.85;;
63050;SDS011;49136;47.416;19.402;2023-02-26T16:21:40;14.73;;;5.82;;
63050;SDS011;49136;47.416;19.402;2023-02-26T16:24:08;12.85;;;5.28;;
63050;SDS011;49136;47.416;19.402;2023-02-26T16:26:45;17.27;;;6.82;;
63050;SDS011;49136;47.416;19.402;2023-02-26T16:29:15;12.60;;;3.25;;
63050;SDS011;49136;47.416;19.402;2023-02-26T16:31:56;22.58;;;6.57;;
63050;SDS011;49136;47.416;19.402;2023-02-26T16:37:54;21.63;;;8.30;;
63050;SDS011;49136;47.416;19.402;2023-02-26T16:40:25;12.82;;;7.15;;
63050;SDS011;49136;47.416;19.402;2023-02-26T16:43:05;9.60;;;4.82;;
63050;SDS011;49136;47.416;19.402;2023-02-26T16:46:00;7.22;;;4.32;;
63050;SDS011;49136;47.416;19.402;2023-02-26T16:48:34;12.20;;;4.63;;
63050;SDS011;49136;47.416;19.402;2023-02-26T16:51:08;9.15;;;4.30;;
63050;SDS011;49136;47.416;19.402;2023-02-26T16:53:48;13.75;;;6.75;;
63050;SDS011;49136;47.416;19.402;2023-02-26T16:56:20;9.57;;;5.25;;
63050;SDS011;49136;47.416;19.402;2023-02-26T17:04:26;9.77;;;5.10;;
63050;SDS011;49136;47.416;19.402;2023-02-26T17:07:01;5.60;;;4.47;;
63050;SDS011;49136;47.416;19.402;2023-02-26T17:09:39;10.82;;;4.60;;
63050;SDS011;49136;47.416;19.402;2023-02-26T17:12:13;21.08;;;6.32;;
63050;SDS011;49136;47.416;19.402;2023-02-26T17:14:40;10.07;;;4.82;;
63050;SDS011;49136;47.416;19.402;2023-02-26T17:17:12;10.55;;;4.20;;
63050;SDS011;49136;47.416;19.402;2023-02-26T17:19:38;21.50;;;6.70;;
63050;SDS011;49136;47.416;19.402;2023-02-26T17:22:04;15.77;;;6.28;;
63050;SDS011;49136;47.416;19.402;2023-02-26T17:24:33;10.77;;;4.88;;
63050;SDS011;49136;47.416;19.402;2023-02-26T17:27:16;11.93;;;6.18;;
63050;SDS011;49136;47.416;19.402;2023-02-26T17:29:48;31.17;;;10.77;;
63050;SDS011;49136;47.416;19.402;2023-02-26T17:32:19;32.88;;;12.95;;
63050;SDS011;49136;47.416;19.402;2023-02-26T17:34:49;17.33;;;6.28;;
63050;SDS011;49136;47.416;19.402;2023-02-26T17:37:15;10.38;;;5.10;;
63050;SDS011;49136;47.416;19.402;2023-02-26T17:39:42;15.95;;;6.38;;
63050;SDS011;49136;47.416;19.402;2023-02-26T17:42:12;11.15;;;6.03;;
63050;SDS011;49136;47.416;19.402;2023-02-26T17:47:20;12.20;;;4.95;;
63050;SDS011;49136;47.416;19.402;2023-02-26T17:49:50;5.85;;;2.17;;
63050;SDS011;49136;47.416;19.402;2023-02-26T17:52:18;10.02;;;4.22;;
63050;SDS011;49136;47.416;19.402;2023-02-26T17:54:43;11.32;;;5.93;;
63050;SDS011;49136;47.416;19.402;2023-02-26T17:57:17;6.25;;;3.58;;
63050;SDS011;49136;47.416;19.402;2023-02-26T17:59:44;9.32;;;4.75;;
63050;SDS011;49136;47.416;19.402;2023-02-26T18:02:13;9.02;;;5.25;;
63050;SDS011;49136;47.416;19.402;2023-02-26T18:04:40;7.38;;;3.20;;
63050;SDS011;49136;47.416;19.402;2023-02-26T18:07:07;9.88;;;3.92;;
63050;SDS011;49136;47.416;19.402;2023-02-26T18:09:40;8.43;;;3.85;;
63050;SDS011;49136;47.416;19.402;2023-02-26T18:12:09;9.55;;;4.57;;
63050;SDS011;49136;47.416;19.402;2023-02-26T18:14:38;8.95;;;4.75;;